Time;durP1;ratioP1;P1;durP2;ratioP2;P2;SDS_P1;SDS_P2;PMS_P1;PMS_P2;Temp;Humidity;BMP_temperature;BMP_pressure;BME280_temperature;BME280_humidity;BME280_pressure;Samples;Min_cycle;Max_cycle;Signal;HPM_P1;HPM_P2
2022/02/20 00:00:56;;;;;;;1.10;0.83;;;22.30;53.00;;;;;;5094952;28;20428;-81
2022/02/20 00:03:24;;;;;;;1.10;0.80;;;22.30;53.00;;;;;;5107501;28;20406;-81
2022/02/20 00:05:54;;;;;;;1.00;0.80;;;22.30;53.00;;;;;;5111152;28;21039;-81
2022/02/20 00:08:24;;;;;;;0.90;0.70;;;22.20;52.90;;;;;;5111138;28;20415;-81
2022/02/20 00:10:51;;;;;;;1.20;0.80;;;22.30;53.10;;;;;;5104926;28;20428;-81
2022/02/20 00:13:29;;;;;;;1.50;0.90;;;22.20;52.90;;;;;;5111038;28;20445;-81
2022/02/20 00:16:01;;;;;;;1.20;1.00;;;22.20;52.90;;;;;;5109860;28;20470;-81
2022/02/20 00:18:28;;;;;;;1.27;0.80;;;22.20;53.00;;;;;;5102913;28;20419;-81
2022/02/20 00:20:54;;;;;;;0.90;0.80;;;22.20;53.00;;;;;;5111404;28;20494;-81
2022/02/20 00:23:22;;;;;;;1.17;0.70;;;22.20;52.90;;;;;;5111844;28;20408;-81
2022/02/20 00:25:54;;;;;;;1.40;0.90;;;22.20;52.90;;;;;;5102598;28;20431;-81
2022/02/20 00:28:33;;;;;;;1.37;0.90;;;22.20;53.00;;;;;;5107455;28;20483;-81
2022/02/20 00:31:01;;;;;;;1.70;0.93;;;22.20;53.00;;;;;;5102188;28;20435;-81
2022/02/20 00:33:28;;;;;;;1.07;0.70;;;22.20;53.00;;;;;;5110725;28;20435;-81
2022/02/20 00:35:54;;;;;;;1.00;0.80;;;22.20;53.00;;;;;;5111403;28;20408;-81
2022/02/20 00:38:28;;;;;;;1.10;0.87;;;22.20;53.00;;;;;;5111315;28;20407;-81
2022/02/20 00:40:54;;;;;;;1.10;0.80;;;22.20;53.00;;;;;;5087389;28;20431;-81
2022/02/20 00:43:20;;;;;;;1.40;0.80;;;22.20;52.90;;;;;;5110247;28;20424;-81
2022/02/20 00:45:49;;;;;;;1.10;0.90;;;22.20;53.00;;;;;;5126522;28;20423;-81
2022/02/20 00:48:17;;;;;;;1.00;0.70;;;22.20;53.00;;;;;;5096334;28;20435;-81
2022/02/20 00:50:49;;;;;;;1.00;0.80;;;22.20;53.00;;;;;;5094417;28;20411;-81
2022/02/20 00:53:17;;;;;;;1.30;0.90;;;22.30;53.10;;;;;;5094000;28;20495;-81
2022/02/20 00:55:43;;;;;;;1.00;0.80;;;22.20;53.00;;;;;;5093278;28;20430;-81
2022/02/20 00:58:13;;;;;;;1.20;0.80;;;22.20;53.00;;;;;;5110112;28;20419;-81
2022/02/20 01:00:43;;;;;;;1.00;0.70;;;22.20;53.50;;;;;;5110223;28;20412;-82
2022/02/20 01:03:10;;;;;;;2.00;0.90;;;22.20;52.90;;;;;;5110651;28;20392;-81
2022/02/20 01:05:36;;;;;;;1.43;1.00;;;22.20;53.00;;;;;;5068112;28;20409;-81
2022/02/20 01:08:06;;;;;;;1.13;0.90;;;22.20;52.90;;;;;;5090655;28;20421;-81
2022/02/20 01:10:32;;;;;;;1.20;0.83;;;22.20;52.90;;;;;;5095820;28;20455;-81
2022/02/20 01:13:01;;;;;;;1.10;0.90;;;22.20;53.00;;;;;;5096554;28;20425;-81
2022/02/20 01:15:28;;;;;;;1.20;0.80;;;22.20;52.90;;;;;;5097407;28;20412;-81
2022/02/20 01:17:58;;;;;;;1.10;0.90;;;22.20;53.00;;;;;;5096304;28;20416;-81
2022/02/20 01:20:29;;;;;;;1.40;0.83;;;22.20;53.00;;;;;;5097195;28;20420;-81
2022/02/20 01:22:58;;;;;;;0.90;0.63;;;22.20;53.00;;;;;;5096064;28;20413;-81
2022/02/20 01:25:30;;;;;;;1.17;0.80;;;22.20;52.90;;;;;;5097420;28;20495;-81
2022/02/20 01:27:58;;;;;;;1.17;1.03;;;22.20;53.00;;;;;;5096264;28;20452;-81
2022/02/20 01:30:25;;;;;;;1.20;0.83;;;22.20;52.90;;;;;;5096540;28;20450;-81
2022/02/20 01:32:55;;;;;;;1.67;0.90;;;22.20;53.00;;;;;;5097160;28;20431;-81
2022/02/20 01:35:21;;;;;;;1.23;0.80;;;22.20;53.00;;;;;;5096793;28;20396;-81
2022/02/20 01:38:15;;;;;;;1.20;0.77;;;22.20;53.00;;;;;;5092293;28;20895;-81
2022/02/20 01:40:47;;;;;;;1.30;0.80;;;22.20;53.00;;;;;;5097774;28;20417;-81
2022/02/20 01:43:14;;;;;;;1.00;0.90;;;22.20;53.00;;;;;;5078692;28;20440;-81
2022/02/20 01:45:41;;;;;;;0.93;0.80;;;22.20;53.00;;;;;;5096883;28;20451;-81
2022/02/20 01:48:10;;;;;;;1.00;0.70;;;22.20;53.00;;;;;;5079547;28;20451;-81
2022/02/20 01:50:36;;;;;;;1.10;0.70;;;22.20;53.00;;;;;;5090514;28;20428;-81
2022/02/20 01:53:03;;;;;;;1.10;0.70;;;22.20;53.00;;;;;;5078161;28;20456;-82
2022/02/20 01:55:33;;;;;;;0.83;0.70;;;22.20;53.00;;;;;;5095108;28;20441;-82
2022/02/20 01:57:59;;;;;;;1.17;0.97;;;22.20;53.00;;;;;;5075215;28;20408;-82
2022/02/20 02:00:29;;;;;;;1.10;0.80;;;22.20;53.00;;;;;;5073790;28;20443;-83
2022/02/20 02:02:59;;;;;;;1.20;0.90;;;22.20;53.00;;;;;;5094288;28;20416;-83
2022/02/20 02:05:27;;;;;;;0.90;0.63;;;22.20;53.00;;;;;;5070251;28;20397;-83
2022/02/20 02:07:53;;;;;;;1.83;1.27;;;22.20;53.00;;;;;;5095099;28;20421;-83
2022/02/20 02:10:22;;;;;;;1.00;0.80;;;22.20;53.00;;;;;;5095266;28;20418;-83
2022/02/20 02:12:49;;;;;;;0.90;0.70;;;22.20;53.00;;;;;;5094330;28;20420;-83
2022/02/20 02:15:21;;;;;;;1.03;0.90;;;22.20;53.00;;;;;;5094416;28;20424;-83
2022/02/20 02:17:52;;;;;;;1.00;0.80;;;22.20;53.00;;;;;;5093733;28;20873;-83
2022/02/20 02:20:18;;;;;;;1.07;0.70;;;22.20;53.00;;;;;;5091816;28;20485;-83
2022/02/20 02:22:45;;;;;;;1.20;0.90;;;22.20;53.10;;;;;;5094181;28;20451;-83
2022/02/20 02:25:13;;;;;;;1.63;1.00;;;22.10;53.00;;;;;;5094064;28;20413;-83
2022/02/20 02:27:41;;;;;;;1.00;0.77;;;22.10;53.00;;;;;;5075779;28;20180;-83
2022/02/20 02:30:11;;;;;;;1.30;0.90;;;22.10;53.00;;;;;;5094280;28;21346;-83
2022/02/20 02:32:37;;;;;;;1.43;0.80;;;22.10;53.00;;;;;;5093617;28;20409;-83
2022/02/20 02:35:06;;;;;;;1.00;0.70;;;22.10;53.00;;;;;;5092458;28;20823;-83
2022/02/20 02:37:33;;;;;;;1.13;0.83;;;22.10;53.00;;;;;;5093953;28;20432;-82
2022/02/20 02:39:59;;;;;;;1.10;0.80;;;22.10;53.10;;;;;;5094025;28;20941;-83
2022/02/20 02:42:26;;;;;;;1.30;0.87;;;22.10;53.10;;;;;;5093539;28;20420;-83
2022/02/20 02:44:53;;;;;;;0.80;0.70;;;22.10;53.10;;;;;;5094420;28;20428;-83
2022/02/20 02:47:20;;;;;;;1.00;0.73;;;22.10;53.10;;;;;;5069797;28;20463;-83
2022/02/20 02:49:49;;;;;;;1.10;0.90;;;22.10;53.10;;;;;;5094219;28;20424;-83
2022/02/20 02:52:16;;;;;;;0.93;0.67;;;22.10;53.10;;;;;;5093166;28;20428;-83
2022/02/20 02:54:44;;;;;;;1.03;0.73;;;22.10;53.10;;;;;;5094256;28;20614;-83
2022/02/20 02:57:10;;;;;;;1.47;0.90;;;22.10;53.10;;;;;;5094216;28;20408;-83
2022/02/20 02:59:39;;;;;;;1.10;1.00;;;22.10;53.10;;;;;;5094650;28;20412;-83
2022/02/20 03:02:07;;;;;;;0.90;0.70;;;22.10;53.10;;;;;;5093831;28;20440;-83
2022/02/20 03:04:35;;;;;;;1.30;0.93;;;22.10;53.10;;;;;;5076321;28;20437;-83
2022/02/20 03:07:04;;;;;;;1.00;0.80;;;22.10;53.10;;;;;;5095033;28;20400;-83
2022/02/20 03:09:36;;;;;;;1.20;0.73;;;22.10;53.10;;;;;;5077036;28;20447;-83
2022/02/20 03:12:03;;;;;;;0.80;0.60;;;22.10;53.10;;;;;;5092677;28;20416;-83
2022/02/20 03:14:30;;;;;;;0.83;0.70;;;22.10;53.10;;;;;;5093285;28;21126;-83
2022/02/20 03:17:00;;;;;;;1.00;0.73;;;22.10;53.10;;;;;;5094413;28;20420;-83
2022/02/20 03:19:27;;;;;;;1.10;0.70;;;22.10;53.10;;;;;;5088222;28;20429;-83
2022/02/20 03:21:54;;;;;;;1.10;0.83;;;22.10;53.10;;;;;;5092991;28;20431;-82
2022/02/20 03:24:21;;;;;;;1.20;0.80;;;22.10;53.10;;;;;;5092641;28;20417;-82
2022/02/20 03:26:47;;;;;;;0.90;0.70;;;22.10;53.20;;;;;;5093625;28;20451;-82
2022/02/20 03:29:13;;;;;;;0.87;0.63;;;22.10;53.10;;;;;;5087874;28;20428;-82
2022/02/20 03:31:42;;;;;;;1.07;0.83;;;22.10;53.10;;;;;;5093402;28;20448;-82
2022/02/20 03:34:10;;;;;;;0.80;0.70;;;22.10;53.10;;;;;;5092301;28;20456;-83
2022/02/20 03:36:36;;;;;;;0.90;0.70;;;22.00;53.10;;;;;;5090144;28;20423;-83
2022/02/20 03:39:09;;;;;;;1.40;0.80;;;22.10;53.20;;;;;;5076090;28;20458;-83
2022/02/20 03:41:35;;;;;;;0.90;0.63;;;22.00;53.10;;;;;;5093874;28;20420;-82
2022/02/20 03:44:03;;;;;;;1.10;0.77;;;22.00;53.10;;;;;;5093965;28;20416;-83
2022/02/20 03:46:29;;;;;;;1.83;1.53;;;22.00;53.10;;;;;;5075614;28;20424;-83
2022/02/20 03:48:58;;;;;;;1.10;0.80;;;22.00;53.10;;;;;;5092561;28;20492;-83
2022/02/20 03:51:24;;;;;;;0.90;0.77;;;22.00;53.10;;;;;;5094487;28;20416;-83
2022/02/20 03:53:52;;;;;;;1.43;0.73;;;22.00;53.10;;;;;;5093363;28;20440;-83
2022/02/20 03:56:19;;;;;;;1.67;0.70;;;22.00;53.10;;;;;;5094210;28;20936;-83
2022/02/20 03:58:49;;;;;;;1.30;0.80;;;22.00;53.10;;;;;;5060055;28;20481;-83
2022/02/20 04:01:17;;;;;;;1.00;0.80;;;22.10;53.20;;;;;;5094845;28;20397;-83
2022/02/20 04:03:43;;;;;;;1.10;0.87;;;22.00;53.10;;;;;;5077271;28;20404;-82
2022/02/20 04:06:10;;;;;;;0.90;0.70;;;22.00;53.10;;;;;;5077082;28;20435;-82
2022/02/20 04:08:41;;;;;;;0.90;0.70;;;22.00;53.10;;;;;;5076912;28;20433;-82
2022/02/20 04:11:11;;;;;;;0.90;0.77;;;22.00;53.10;;;;;;5090556;28;20416;-82
2022/02/20 04:13:38;;;;;;;1.10;0.80;;;22.00;53.10;;;;;;5093858;28;20455;-82
2022/02/20 04:16:05;;;;;;;0.90;0.80;;;22.00;53.10;;;;;;5093659;28;20454;-82
2022/02/20 04:18:34;;;;;;;1.23;0.70;;;22.00;53.10;;;;;;5094354;28;20400;-83
2022/02/20 04:21:02;;;;;;;1.30;0.80;;;22.00;53.10;;;;;;5077782;28;20432;-83
2022/02/20 04:23:30;;;;;;;1.10;0.70;;;22.00;53.10;;;;;;5060755;28;20434;-83
2022/02/20 04:26:01;;;;;;;1.40;0.90;;;22.00;53.10;;;;;;5092746;28;20405;-83
2022/02/20 04:28:30;;;;;;;0.90;0.60;;;22.00;53.20;;;;;;5094331;28;20388;-83
2022/02/20 04:30:58;;;;;;;1.10;0.70;;;22.00;53.10;;;;;;5093898;28;20415;-83
2022/02/20 04:33:27;;;;;;;1.43;0.90;;;22.00;53.10;;;;;;5092849;28;20526;-83
2022/02/20 04:35:59;;;;;;;1.13;0.80;;;22.00;53.10;;;;;;5093874;28;20400;-82
2022/02/20 04:38:25;;;;;;;1.13;0.73;;;22.00;53.20;;;;;;5093579;28;20444;-83
2022/02/20 04:40:51;;;;;;;1.10;0.80;;;22.00;53.20;;;;;;5078623;28;20416;-83
2022/02/20 04:43:19;;;;;;;1.00;0.70;;;22.00;53.20;;;;;;5098304;28;20503;-83
2022/02/20 04:45:46;;;;;;;1.10;0.90;;;22.00;53.20;;;;;;5097043;28;20424;-83
2022/02/20 04:48:17;;;;;;;0.90;0.60;;;22.00;53.20;;;;;;5098090;28;20407;-83
2022/02/20 04:50:43;;;;;;;1.40;0.80;;;22.00;53.20;;;;;;5098270;28;20419;-83
2022/02/20 04:53:10;;;;;;;0.90;0.70;;;22.00;53.20;;;;;;5097233;28;20463;-83
2022/02/20 04:55:36;;;;;;;1.20;0.80;;;22.00;53.20;;;;;;5096483;28;20466;-83
2022/02/20 04:58:03;;;;;;;1.13;0.87;;;22.00;53.20;;;;;;5098054;28;20392;-83
2022/02/20 05:00:29;;;;;;;1.03;0.73;;;22.00;53.20;;;;;;5063207;28;20428;-83
2022/02/20 05:02:57;;;;;;;0.87;0.70;;;22.00;53.20;;;;;;5097524;28;20409;-83
2022/02/20 05:05:24;;;;;;;2.10;1.10;;;21.90;53.10;;;;;;5096979;28;20393;-83
2022/02/20 05:07:50;;;;;;;1.73;1.00;;;22.00;53.20;;;;;;5096112;28;20413;-83
2022/02/20 05:10:16;;;;;;;1.13;0.73;;;22.00;53.20;;;;;;5097489;28;20154;-83
2022/02/20 05:12:45;;;;;;;0.90;0.70;;;22.00;53.20;;;;;;5079812;28;20443;-83
2022/02/20 05:15:14;;;;;;;1.00;0.70;;;22.00;53.20;;;;;;5096593;28;20489;-83
2022/02/20 05:17:43;;;;;;;1.30;0.70;;;22.00;53.20;;;;;;5096563;28;20432;-83
2022/02/20 05:20:15;;;;;;;0.90;0.70;;;21.90;53.10;;;;;;5097044;28;20413;-83
2022/02/20 05:23:03;;;;;;;1.10;0.97;;;21.90;53.10;;;;;;5096948;28;20446;-83
2022/02/20 05:25:54;;;;;;;1.37;0.83;;;21.90;53.10;;;;;;5080342;28;20454;-83
2022/02/20 05:28:23;;;;;;;1.00;0.80;;;21.90;53.10;;;;;;5096631;28;20413;-83
2022/02/20 05:30:50;;;;;;;0.80;0.63;;;21.90;53.10;;;;;;5097214;28;20384;-83
2022/02/20 05:33:17;;;;;;;1.07;0.77;;;21.90;53.10;;;;;;5063021;28;20462;-83
2022/02/20 05:35:44;;;;;;;0.90;0.70;;;21.90;53.10;;;;;;5096551;28;20439;-83
2022/02/20 05:38:11;;;;;;;1.00;0.80;;;21.90;53.10;;;;;;5096214;28;20480;-83
2022/02/20 05:40:38;;;;;;;0.90;0.80;;;21.90;53.10;;;;;;5096093;28;20397;-83
2022/02/20 05:43:06;;;;;;;0.90;0.70;;;21.90;53.10;;;;;;5096264;28;20420;-83
2022/02/20 05:45:45;;;;;;;1.10;0.80;;;21.90;53.10;;;;;;5079526;28;20413;-83
2022/02/20 05:48:11;;;;;;;1.17;0.90;;;21.90;53.10;;;;;;5096373;28;20404;-83
2022/02/20 05:50:38;;;;;;;0.90;0.70;;;21.90;53.10;;;;;;5096633;28;20460;-83
2022/02/20 05:53:09;;;;;;;0.93;0.70;;;21.90;53.20;;;;;;5078968;28;20508;-83
2022/02/20 05:55:38;;;;;;;1.00;0.67;;;21.90;53.10;;;;;;5080025;28;20459;-83
2022/02/20 05:58:07;;;;;;;1.10;0.70;;;21.90;53.20;;;;;;5095733;28;20963;-83
2022/02/20 06:00:38;;;;;;;1.50;0.90;;;21.80;53.10;;;;;;5096542;28;20404;-83
2022/02/20 06:03:07;;;;;;;1.10;0.73;;;21.90;53.20;;;;;;5096130;28;20465;-83
2022/02/20 06:05:38;;;;;;;1.00;0.70;;;21.80;53.10;;;;;;5095426;28;20446;-83
2022/02/20 06:08:09;;;;;;;1.10;0.80;;;21.90;53.20;;;;;;5095959;28;20409;-83
2022/02/20 06:10:37;;;;;;;0.80;0.60;;;21.90;53.20;;;;;;5096724;28;20480;-83
2022/02/20 06:13:04;;;;;;;1.40;0.80;;;21.90;53.20;;;;;;5079016;28;20417;-83
2022/02/20 06:15:31;;;;;;;1.30;0.80;;;21.90;53.20;;;;;;5096584;28;20879;-83
2022/02/20 06:17:59;;;;;;;1.20;0.83;;;21.80;53.10;;;;;;5078818;28;20417;-83
2022/02/20 06:20:26;;;;;;;1.00;0.70;;;21.80;53.10;;;;;;5076350;28;20431;-83
2022/02/20 06:23:02;;;;;;;0.90;0.60;;;21.90;53.20;;;;;;5096383;28;20411;-83
2022/02/20 06:25:30;;;;;;;0.83;0.60;;;21.90;53.20;;;;;;5079366;28;20416;-83
2022/02/20 06:28:02;;;;;;;0.97;0.77;;;21.80;53.10;;;;;;5095999;28;20417;-83
2022/02/20 06:30:28;;;;;;;1.10;0.70;;;21.90;53.20;;;;;;5078624;28;20412;-83
2022/02/20 06:32:57;;;;;;;0.90;0.70;;;21.90;53.20;;;;;;5094453;28;20866;-83
2022/02/20 06:35:25;;;;;;;0.80;0.60;;;21.90;53.20;;;;;;5078591;28;20452;-83
2022/02/20 06:37:51;;;;;;;1.00;0.80;;;21.90;53.20;;;;;;5111240;28;20428;-83
2022/02/20 06:40:18;;;;;;;0.97;0.70;;;21.90;53.20;;;;;;5095406;28;20428;-83
2022/02/20 06:42:44;;;;;;;0.90;0.63;;;21.90;53.20;;;;;;5094992;28;20416;-83
2022/02/20 06:45:13;;;;;;;1.00;0.80;;;21.90;53.20;;;;;;5095710;28;20480;-83
2022/02/20 06:47:45;;;;;;;0.90;0.70;;;21.90;53.20;;;;;;5095053;28;20464;-83
2022/02/20 06:50:12;;;;;;;1.53;0.80;;;21.90;53.20;;;;;;5095280;28;20400;-83
2022/02/20 06:52:39;;;;;;;1.00;0.60;;;21.90;53.10;;;;;;5094892;28;20409;-83
2022/02/20 06:55:11;;;;;;;0.80;0.70;;;21.90;53.10;;;;;;5094302;28;20464;-83
2022/02/20 06:57:41;;;;;;;0.93;0.70;;;21.90;53.10;;;;;;5095518;28;20385;-83
2022/02/20 07:00:23;;;;;;;1.10;0.87;;;21.90;53.10;;;;;;5095445;28;20405;-83
2022/02/20 07:02:50;;;;;;;1.30;0.60;;;21.90;53.10;;;;;;5094751;28;20371;-83
2022/02/20 07:05:17;;;;;;;1.40;0.70;;;21.90;53.20;;;;;;5077896;28;20512;-83
2022/02/20 07:07:44;;;;;;;1.20;0.70;;;21.90;53.10;;;;;;5094903;28;20431;-83
2022/02/20 07:10:14;;;;;;;1.40;1.00;;;21.90;53.10;;;;;;5094196;28;20440;-83
2022/02/20 07:12:44;;;;;;;0.80;0.70;;;21.90;53.20;;;;;;5094496;28;20546;-82
2022/02/20 07:15:11;;;;;;;0.97;0.60;;;21.90;53.20;;;;;;5095269;28;20446;-83
2022/02/20 07:17:42;;;;;;;0.90;0.60;;;21.90;53.10;;;;;;5093951;28;20412;-83
2022/02/20 07:20:12;;;;;;;1.50;0.70;;;21.90;53.10;;;;;;5094870;28;20389;-83
2022/02/20 07:22:39;;;;;;;1.07;0.80;;;21.90;53.10;;;;;;5093871;28;20508;-83
2022/02/20 07:25:08;;;;;;;1.00;0.70;;;21.90;53.20;;;;;;5077912;28;20409;-83
2022/02/20 07:27:42;;;;;;;1.20;0.70;;;21.90;53.10;;;;;;5077108;28;20424;-83
2022/02/20 07:30:11;;;;;;;1.00;0.67;;;21.90;53.20;;;;;;5078286;28;20431;-83
2022/02/20 07:32:40;;;;;;;1.30;0.70;;;21.90;53.20;;;;;;5093832;28;20420;-83
2022/02/20 07:35:15;;;;;;;1.50;0.70;;;21.90;53.20;;;;;;5094305;28;20455;-82
2022/02/20 07:37:42;;;;;;;1.00;0.70;;;21.90;53.20;;;;;;5094045;28;20484;-82
2022/02/20 07:40:08;;;;;;;1.00;0.70;;;21.90;53.20;;;;;;5094174;28;20494;-82
2022/02/20 07:42:34;;;;;;;0.80;0.60;;;21.90;53.20;;;;;;5077578;28;20428;-83
2022/02/20 07:45:00;;;;;;;0.80;0.60;;;21.90;53.20;;;;;;5094399;28;20405;-82
2022/02/20 07:47:28;;;;;;;1.00;0.70;;;21.90;53.20;;;;;;5094006;28;20419;-82
2022/02/20 07:49:54;;;;;;;1.00;0.70;;;21.90;53.20;;;;;;5094772;28;20423;-82
2022/02/20 07:52:21;;;;;;;1.03;0.67;;;21.90;53.20;;;;;;5077794;28;20427;-82
2022/02/20 07:54:50;;;;;;;1.00;0.70;;;21.90;53.10;;;;;;5093897;28;21247;-82
2022/02/20 07:57:17;;;;;;;1.17;0.80;;;21.90;53.10;;;;;;5093766;28;20444;-82
2022/02/20 07:59:46;;;;;;;0.90;0.70;;;21.90;53.10;;;;;;5093683;28;20413;-82
2022/02/20 08:02:12;;;;;;;0.90;0.70;;;21.90;53.10;;;;;;5094469;28;20444;-82
2022/02/20 08:04:39;;;;;;;1.00;0.70;;;21.90;53.10;;;;;;5093536;28;20428;-82
2022/02/20 08:07:11;;;;;;;0.90;0.70;;;21.90;53.20;;;;;;5076971;28;20432;-82
2022/02/20 08:09:38;;;;;;;1.10;0.70;;;21.90;53.20;;;;;;5094253;28;20420;-83
2022/02/20 08:12:10;;;;;;;1.03;0.87;;;21.90;53.10;;;;;;5093827;28;20428;-82
2022/02/20 08:14:41;;;;;;;0.83;0.60;;;21.90;53.10;;;;;;5094367;28;20472;-82
2022/02/20 08:17:09;;;;;;;1.00;0.70;;;21.90;53.10;;;;;;5097928;28;20417;-83
2022/02/20 08:19:35;;;;;;;2.60;0.70;;;21.90;53.20;;;;;;5098718;28;20401;-83
2022/02/20 08:22:02;;;;;;;1.03;0.77;;;21.90;53.10;;;;;;5097543;28;20413;-82
2022/02/20 08:24:28;;;;;;;0.80;0.70;;;21.90;53.10;;;;;;5098235;28;20420;-82
2022/02/20 08:26:54;;;;;;;1.20;0.70;;;21.90;53.10;;;;;;5098273;28;20423;-82
2022/02/20 08:29:24;;;;;;;0.93;0.70;;;21.90;53.10;;;;;;5098153;28;20428;-82
2022/02/20 08:31:54;;;;;;;1.00;0.77;;;21.90;53.10;;;;;;5097565;28;20400;-82
2022/02/20 08:34:21;;;;;;;0.97;0.70;;;21.90;53.10;;;;;;5097295;28;20452;-82
2022/02/20 08:36:51;;;;;;;0.90;0.70;;;21.90;53.10;;;;;;5097175;28;20405;-82
2022/02/20 08:39:18;;;;;;;1.03;0.90;;;21.90;53.20;;;;;;5097835;28;20491;-82
2022/02/20 08:41:45;;;;;;;1.13;0.63;;;21.90;53.20;;;;;;5080387;28;20419;-82
2022/02/20 08:44:11;;;;;;;0.90;0.70;;;21.90;53.20;;;;;;5097177;28;20416;-83
2022/02/20 08:46:39;;;;;;;1.10;0.70;;;21.90;53.20;;;;;;5097924;28;20488;-83
2022/02/20 08:49:05;;;;;;;1.33;0.90;;;21.90;53.20;;;;;;5096324;28;20412;-83
2022/02/20 08:51:32;;;;;;;1.37;0.70;;;21.90;53.20;;;;;;5096659;28;20424;-83
2022/02/20 08:53:58;;;;;;;0.80;0.60;;;21.90;53.20;;;;;;5098131;28;20478;-83
2022/02/20 08:56:28;;;;;;;0.90;0.70;;;21.90;53.20;;;;;;5096710;28;20432;-83
2022/02/20 08:58:59;;;;;;;0.90;0.70;;;22.00;53.30;;;;;;5097930;28;20408;-83
2022/02/20 09:01:31;;;;;;;1.30;0.70;;;21.90;53.20;;;;;;5097028;28;20401;-83
2022/02/20 09:04:02;;;;;;;0.90;0.60;;;21.90;53.20;;;;;;5096922;28;20417;-82
2022/02/20 09:06:32;;;;;;;0.83;0.60;;;21.90;53.20;;;;;;5097783;28;20478;-82
2022/02/20 09:09:07;;;;;;;0.83;0.60;;;21.90;53.20;;;;;;5096789;28;20496;-82
2022/02/20 09:11:34;;;;;;;1.07;0.70;;;21.90;53.20;;;;;;5097772;28;20427;-82
2022/02/20 09:14:07;;;;;;;1.00;0.70;;;21.90;53.20;;;;;;5097161;28;20456;-82
2022/02/20 09:16:32;;;;;;;0.80;0.50;;;21.90;53.20;;;;;;5097250;28;20393;-82
2022/02/20 09:19:03;;;;;;;0.87;0.67;;;21.90;53.20;;;;;;5097285;28;20412;-82
2022/02/20 09:21:33;;;;;;;1.00;0.70;;;21.90;53.20;;;;;;5097260;28;20396;-82
2022/02/20 09:24:04;;;;;;;0.80;0.60;;;21.90;53.20;;;;;;5079222;28;20427;-81
2022/02/20 09:29:54;;;;;;;1.13;0.77;;;21.90;53.20;;;;;;5097138;28;20368;-82
2022/02/20 09:32:22;;;;;;;0.80;0.60;;;21.90;53.20;;;;;;5079731;28;20535;-82
2022/02/20 09:34:49;;;;;;;1.10;0.70;;;21.90;53.20;;;;;;5096386;28;20463;-83
2022/02/20 09:37:21;;;;;;;1.40;0.80;;;21.90;53.20;;;;;;5079470;28;20416;-81
2022/02/20 09:39:48;;;;;;;0.80;0.60;;;21.90;53.20;;;;;;5079811;28;20397;-81
2022/02/20 09:42:15;;;;;;;1.00;0.70;;;21.90;53.20;;;;;;5097145;28;20495;-81
2022/02/20 09:44:49;;;;;;;1.10;0.80;;;21.90;53.20;;;;;;5097416;28;20416;-81
2022/02/20 09:47:16;;;;;;;1.10;0.70;;;21.90;53.20;;;;;;5095796;28;20404;-83
2022/02/20 09:49:50;;;;;;;1.00;0.70;;;21.90;53.20;;;;;;5096103;28;20427;-82
2022/02/20 09:52:21;;;;;;;1.30;0.80;;;21.90;53.20;;;;;;5097378;28;20389;-82
2022/02/20 09:54:47;;;;;;;1.33;0.80;;;22.00;53.30;;;;;;5079425;28;20520;-82
2022/02/20 09:57:16;;;;;;;1.23;0.70;;;21.90;53.20;;;;;;5097037;28;20886;-82
2022/02/20 09:59:45;;;;;;;1.63;0.83;;;21.90;53.20;;;;;;5096199;28;20415;-82
2022/02/20 10:02:16;;;;;;;1.07;0.60;;;21.90;53.20;;;;;;5096537;28;20397;-82
2022/02/20 10:04:45;;;;;;;0.80;0.60;;;21.90;53.20;;;;;;5095994;28;20854;-82
2022/02/20 10:07:38;;;;;;;1.10;0.70;;;21.90;53.20;;;;;;5095956;28;20423;-82
2022/02/20 10:10:27;;;;;;;1.10;0.70;;;21.90;53.20;;;;;;5095132;28;20423;-83
2022/02/20 10:13:05;;;;;;;0.80;0.70;;;21.90;53.20;;;;;;5112643;28;20397;-83
2022/02/20 10:15:36;;;;;;;1.10;0.90;;;21.90;53.30;;;;;;5096382;28;20488;-83
2022/02/20 10:18:24;;;;;;;0.90;0.63;;;21.90;53.30;;;;;;5096715;28;20401;-83
2022/02/20 10:21:02;;;;;;;0.90;0.70;;;21.90;53.30;;;;;;5095693;28;20408;-83
2022/02/20 10:23:40;;;;;;;0.80;0.60;;;21.90;53.30;;;;;;5079278;28;20530;-82
2022/02/20 10:26:28;;;;;;;1.20;0.80;;;21.90;53.30;;;;;;5079594;28;20416;-82
2022/02/20 10:29:10;;;;;;;1.10;0.70;;;21.90;53.30;;;;;;5095803;28;20389;-82
2022/02/20 10:31:52;;;;;;;0.87;0.63;;;21.90;53.30;;;;;;5096289;28;20389;-82
2022/02/20 10:34:32;;;;;;;0.90;0.60;;;21.90;53.30;;;;;;5095635;28;20444;-82
2022/02/20 10:37:06;;;;;;;1.00;0.80;;;21.90;53.30;;;;;;5095001;28;20894;-82
2022/02/20 10:39:42;;;;;;;1.00;0.70;;;21.90;53.30;;;;;;5094505;28;20447;-82
2022/02/20 10:42:20;;;;;;;0.90;0.70;;;21.90;53.30;;;;;;5096060;28;20396;-82
2022/02/20 10:44:59;;;;;;;0.97;0.70;;;21.90;53.30;;;;;;5095936;28;20400;-82
2022/02/20 10:47:26;;;;;;;0.80;0.60;;;21.90;53.30;;;;;;5095540;28;20421;-82
2022/02/20 10:49:53;;;;;;;1.00;0.77;;;21.90;53.30;;;;;;5094339;28;20417;-82
2022/02/20 10:52:28;;;;;;;0.90;0.70;;;21.90;53.30;;;;;;5094731;28;20450;-82
2022/02/20 10:55:13;;;;;;;0.90;0.70;;;21.90;53.30;;;;;;5077998;28;20511;-82
2022/02/20 10:57:49;;;;;;;1.20;0.80;;;21.90;53.30;;;;;;5095478;28;20723;-82
2022/02/20 11:00:44;;;;;;;;;;;;;;;;;;;;;
2022/02/20 11:03:17;;;;;;;1.10;0.77;;;21.90;53.30;;;;;;5095574;28;20448;-82
2022/02/20 11:05:44;;;;;;;1.00;0.70;;;21.90;53.30;;;;;;5094956;28;20439;-82
2022/02/20 11:08:11;;;;;;;0.87;0.67;;;21.90;53.30;;;;;;5093856;28;20768;-82
2022/02/20 11:10:40;;;;;;;1.03;0.70;;;21.90;53.30;;;;;;5094682;28;20424;-82
2022/02/20 11:13:11;;;;;;;1.20;0.80;;;21.90;53.30;;;;;;5077471;28;20443;-82
2022/02/20 11:15:38;;;;;;;0.80;0.60;;;21.90;53.30;;;;;;5077863;28;20413;-82
2022/02/20 11:18:16;;;;;;;0.87;0.60;;;21.90;53.30;;;;;;5094795;28;20430;-82
2022/02/20 11:20:46;;;;;;;1.00;0.70;;;21.90;53.30;;;;;;5094213;28;20393;-82
2022/02/20 11:23:27;;;;;;;0.90;0.60;;;21.90;53.30;;;;;;5077855;28;20871;-82
2022/02/20 11:25:57;;;;;;;1.03;0.80;;;21.90;53.30;;;;;;5095122;28;20384;-82
2022/02/20 11:28:24;;;;;;;0.97;0.60;;;21.90;53.30;;;;;;5094633;28;20405;-82
2022/02/20 11:30:55;;;;;;;1.00;0.70;;;21.90;53.30;;;;;;5094802;28;20415;-82
2022/02/20 11:33:31;;;;;;;0.80;0.70;;;21.90;53.30;;;;;;5078100;28;20459;-82
2022/02/20 11:36:09;;;;;;;1.03;0.70;;;21.90;53.30;;;;;;5094903;28;20444;-82
2022/02/20 11:38:35;;;;;;;0.83;0.70;;;21.90;53.30;;;;;;5078865;28;20435;-82
2022/02/20 11:41:12;;;;;;;0.90;0.60;;;21.90;53.30;;;;;;5094036;28;20504;-82
2022/02/20 11:43:43;;;;;;;0.80;0.60;;;21.90;53.30;;;;;;5094306;28;20442;-82
2022/02/20 11:46:18;;;;;;;0.90;0.60;;;21.90;53.30;;;;;;5094987;28;20752;-82
2022/02/20 11:49:19;;;;;;;0.90;0.60;;;21.90;53.30;;;;;;5094770;28;20460;-83
2022/02/20 11:52:11;;;;;;;1.07;0.70;;;22.00;53.30;;;;;;5093688;28;20404;-83
2022/02/20 11:54:41;;;;;;;0.83;0.67;;;21.90;53.30;;;;;;5093350;28;20452;-82
2022/02/20 11:57:33;;;;;;;1.00;0.70;;;21.90;53.30;;;;;;5094236;28;20450;-82
2022/02/20 12:00:25;;;;;;;0.90;0.70;;;21.90;53.90;;;;;;5033309;28;20422;-82
2022/02/20 12:03:04;;;;;;;0.90;0.60;;;21.90;53.30;;;;;;4992806;28;20476;-82
2022/02/20 12:05:32;;;;;;;0.83;0.60;;;21.90;53.30;;;;;;4977903;28;20436;-82
2022/02/20 12:07:59;;;;;;;1.20;0.80;;;21.90;53.30;;;;;;4993951;28;20409;-82
2022/02/20 12:10:25;;;;;;;1.13;0.80;;;21.90;53.30;;;;;;4978154;28;20417;-82
2022/02/20 12:13:29;;;;;;;0.80;0.60;;;21.90;53.30;;;;;;4995268;28;20417;-82
2022/02/20 12:15:59;;;;;;;0.80;0.67;;;21.90;53.30;;;;;;4917460;29;20323;-83
2022/02/20 12:18:28;;;;;;;1.03;0.67;;;21.90;53.40;;;;;;4917334;29;20401;-83
2022/02/20 12:21:29;;;;;;;0.90;0.70;;;21.90;53.90;;;;;;4901838;29;20453;-83
2022/02/20 12:23:57;;;;;;;0.90;0.60;;;21.90;53.30;;;;;;4879296;29;20481;-83
2022/02/20 12:26:41;;;;;;;0.90;0.70;;;21.90;53.40;;;;;;4864180;29;20506;-83
2022/02/20 12:29:15;;;;;;;1.00;0.70;;;21.90;53.40;;;;;;4879047;29;20436;-83
2022/02/20 12:32:14;;;;;;;1.00;0.80;;;21.90;53.40;;;;;;4880172;29;20387;-83
2022/02/20 12:35:10;;;;;;;1.03;0.70;;;21.90;53.40;;;;;;4879654;29;20542;-83
2022/02/20 12:37:45;;;;;;;0.90;0.60;;;21.90;53.40;;;;;;4928438;29;20419;-83
2022/02/20 12:40:19;;;;;;;0.80;0.60;;;21.90;53.40;;;;;;4950114;29;20397;-83
2022/02/20 12:42:55;;;;;;;0.90;0.67;;;21.90;53.40;;;;;;4973806;29;20398;-82
2022/02/20 12:45:35;;;;;;;0.80;0.60;;;21.90;53.70;;;;;;4958524;29;20414;-82
2022/02/20 12:48:08;;;;;;;0.90;0.70;;;21.90;53.40;;;;;;4974262;29;20434;-83
2022/02/20 12:50:39;;;;;;;1.43;1.10;;;21.90;53.40;;;;;;4990033;28;20421;-83
2022/02/20 12:53:06;;;;;;;0.87;0.63;;;21.90;53.40;;;;;;5012865;28;20443;-83
2022/02/20 12:55:40;;;;;;;1.00;0.70;;;21.90;53.30;;;;;;5012678;28;20460;-83
2022/02/20 12:58:11;;;;;;;0.87;0.60;;;21.90;53.30;;;;;;5013048;28;20399;-83
2022/02/20 13:00:43;;;;;;;0.80;0.60;;;21.90;53.30;;;;;;5026983;28;20413;-82
2022/02/20 13:03:49;;;;;;;0.80;0.60;;;21.90;53.30;;;;;;5096576;28;20814;-81
2022/02/20 13:06:19;;;;;;;0.90;0.60;;;21.90;53.30;;;;;;5092977;28;20424;-82
2022/02/20 13:08:47;;;;;;;1.07;0.73;;;21.90;53.30;;;;;;5096848;28;20385;-82